Time;durP1;ratioP1;P1;durP2;ratioP2;P2;SDS_P1;SDS_P2;PMS_P1;PMS_P2;Temp;Humidity;BMP_temperature;BMP_pressure;BME280_temperature;BME280_humidity;BME280_pressure;Samples;Min_cycle;Max_cycle;Signal;HPM_P1;HPM_P2
2023/10/10 00:00:23;;;;;;;;;;;17.80;99.90;;;;;;8428186;28;19950;-71
2023/10/10 00:04:27;;;;;;;;;;;17.70;99.90;;;;;;8404014;28;19978;-71
2023/10/10 00:08:43;;;;;;;;;;;17.70;99.90;;;;;;8422405;28;19924;-71
2023/10/10 00:12:47;;;;;;;;;;;17.70;99.90;;;;;;8424168;28;19951;-71
2023/10/10 00:16:54;;;;;;;;;;;17.70;99.90;;;;;;8420294;28;19963;-71
2023/10/10 00:21:09;;;;;;;;;;;17.70;99.90;;;;;;8405914;28;19924;-71
2023/10/10 00:25:12;;;;;;;;;;;17.60;99.90;;;;;;8424451;28;19924;-71
2023/10/10 00:29:16;;;;;;;;;;;17.70;99.90;;;;;;8428548;28;19970;-71
2023/10/10 00:33:18;;;;;;;;;;;17.60;99.90;;;;;;8403555;28;20391;-71
2023/10/10 00:37:25;;;;;;;;;;;17.60;99.90;;;;;;8425978;28;19928;-71
2023/10/10 00:41:27;;;;;;;;;;;17.60;99.90;;;;;;8406823;28;20634;-71
2023/10/10 00:45:33;;;;;;;;;;;17.50;99.90;;;;;;8421175;28;19928;-71
2023/10/10 00:49:36;;;;;;;;;;;17.50;99.90;;;;;;8427395;28;20347;-71
2023/10/10 00:53:40;;;;;;;;;;;17.50;99.90;;;;;;8422832;28;19928;-71
2023/10/10 00:57:43;;;;;;;;;;;17.50;99.90;;;;;;8427682;28;19994;-71
2023/10/10 01:01:45;;;;;;;;;;;17.40;99.90;;;;;;8425072;28;19928;-71
2023/10/10 01:05:53;;;;;;;;;;;17.40;99.90;;;;;;8422541;28;19928;-71
2023/10/10 01:10:07;;;;;;;;;;;17.40;99.90;;;;;;8422181;28;19924;-71
2023/10/10 01:14:09;;;;;;;;;;;17.30;99.90;;;;;;8420517;28;19932;-71
2023/10/10 01:18:14;;;;;;;;;;;17.30;99.90;;;;;;8419848;28;19978;-71
2023/10/10 01:22:37;;;;;;;;;;;17.20;99.90;;;;;;8402939;28;19925;-71
2023/10/10 01:26:44;;;;;;;;;;;17.10;99.90;;;;;;8418129;28;19982;-71
2023/10/10 01:34:56;;;;;;;;;;;17.00;99.90;;;;;;8422684;28;19961;-71
2023/10/10 01:39:07;;;;;;;;;;;17.00;99.90;;;;;;8402215;28;20305;-71
2023/10/10 01:43:10;;;;;;;;;;;16.90;99.90;;;;;;8424553;28;19928;-71
2023/10/10 01:47:26;;;;;;;;;;;16.90;99.90;;;;;;8421221;28;20536;-71
2023/10/10 01:51:33;;;;;;;;;;;16.90;99.90;;;;;;8432031;28;19932;-71
2023/10/10 01:55:36;;;;;;;;;;;16.80;99.90;;;;;;8411043;28;19931;-71
2023/10/10 01:59:38;;;;;;;;;;;16.80;99.90;;;;;;8431937;28;19924;-71
2023/10/10 02:03:40;;;;;;;;;;;16.80;99.90;;;;;;8429867;28;19932;-71
2023/10/10 02:07:42;;;;;;;;;;;16.70;99.90;;;;;;8422309;28;19964;-71
2023/10/10 02:11:50;;;;;;;;;;;16.70;99.90;;;;;;8411036;28;20405;-70
2023/10/10 02:15:53;;;;;;;;;;;16.70;99.90;;;;;;8412641;28;19928;-71
2023/10/10 02:20:17;;;;;;;;;;;16.70;99.90;;;;;;8423110;28;19924;-71
2023/10/10 02:28:43;;;;;;;;;;;16.60;99.90;;;;;;8426117;28;19931;-71
2023/10/10 02:32:46;;;;;;;;;;;16.50;99.90;;;;;;8425713;28;19985;-71
2023/10/10 02:45:28;;;;;;;;;;;16.50;99.90;;;;;;8423577;28;19924;-71
2023/10/10 02:49:30;;;;;;;;;;;16.50;99.90;;;;;;8424844;28;20597;-71
2023/10/10 02:53:32;;;;;;;;;;;16.60;99.90;;;;;;8429940;28;19931;-71
2023/10/10 02:57:39;;;;;;;;;;;16.60;99.90;;;;;;8422788;28;20434;-71
2023/10/10 03:01:56;;;;;;;;;;;16.50;99.90;;;;;;8426411;28;19928;-71
2023/10/10 03:05:58;;;;;;;;;;;16.50;99.90;;;;;;8427649;28;20557;-71
2023/10/10 03:10:22;;;;;;;;;;;16.50;99.90;;;;;;8424169;28;20049;-71
2023/10/10 03:14:28;;;;;;;;;;;16.50;99.90;;;;;;8421305;28;20287;-71
2023/10/10 03:18:30;;;;;;;;;;;16.40;99.90;;;;;;8424334;28;19928;-71
2023/10/10 03:22:52;;;;;;;;;;;16.40;99.90;;;;;;8428408;28;19924;-71
2023/10/10 03:27:01;;;;;;;;;;;16.50;99.90;;;;;;8422739;28;19924;-70
2023/10/10 03:35:34;;;;;;;;;;;16.50;99.90;;;;;;8424209;28;19925;-70
2023/10/10 03:39:42;;;;;;;;;;;16.50;99.90;;;;;;8403458;28;20347;-71
2023/10/10 05:23:50;;;;;;;;;;;16.10;99.90;;;;;;8418208;28;19931;-71
2023/10/10 05:27:52;;;;;;;;;;;16.00;99.90;;;;;;8418434;28;19947;-71
2023/10/10 05:36:59;;;;;;;;;;;16.00;99.90;;;;;;8415359;28;19934;-71
2023/10/10 05:41:02;;;;;;;;;;;16.00;99.90;;;;;;8408252;28;19928;-71
2023/10/10 05:45:08;;;;;;;;;;;16.00;99.90;;;;;;8419421;28;20415;-71
2023/10/10 05:49:10;;;;;;;;;;;16.00;99.90;;;;;;8424104;28;19924;-71
2023/10/10 05:53:12;;;;;;;;;;;16.00;99.90;;;;;;8410575;28;20341;-71
2023/10/10 05:57:13;;;;;;;;;;;16.00;99.90;;;;;;8424271;28;19924;-71
2023/10/10 06:01:16;;;;;;;;;;;16.00;99.90;;;;;;8426533;28;19924;-71
2023/10/10 06:05:18;;;;;;;;;;;16.00;99.90;;;;;;8403378;28;20425;-71
2023/10/10 06:09:26;;;;;;;;;;;15.90;99.90;;;;;;8431635;27;19928;-71
2023/10/10 06:13:29;;;;;;;;;;;15.90;99.90;;;;;;8425287;28;20268;-71
2023/10/10 06:17:33;;;;;;;;;;;15.80;99.90;;;;;;8402206;28;20423;-71
2023/10/10 06:21:35;;;;;;;;;;;15.90;99.90;;;;;;8409994;28;19931;-71
2023/10/10 06:25:37;;;;;;;;;;;15.90;99.90;;;;;;8402705;28;19967;-71
2023/10/10 06:29:40;;;;;;;;;;;15.90;99.90;;;;;;8424674;28;19925;-71
2023/10/10 06:33:42;;;;;;;;;;;15.90;99.90;;;;;;8423481;28;19969;-71
2023/10/10 06:37:44;;;;;;;;;;;15.90;99.90;;;;;;8425634;28;20018;-71
2023/10/10 06:41:48;;;;;;;;;;;15.80;99.90;;;;;;8430329;28;19924;-71
2023/10/10 06:45:54;;;;;;;;;;;15.80;99.90;;;;;;8403719;28;19978;-71
2023/10/10 06:49:56;;;;;;;;;;;15.90;99.90;;;;;;8422255;28;19970;-71
2023/10/10 06:54:03;;;;;;;;;;;15.90;99.90;;;;;;8416943;28;19924;-71
2023/10/10 06:58:10;;;;;;;;;;;15.80;99.90;;;;;;8411359;28;19928;-71
2023/10/10 07:02:20;;;;;;;;;;;15.80;99.90;;;;;;8424902;28;19977;-71
2023/10/10 07:06:23;;;;;;;;;;;15.90;99.90;;;;;;8415513;28;19932;-71
2023/10/10 07:10:26;;;;;;;;;;;15.90;99.90;;;;;;8414966;28;19924;-71
2023/10/10 07:14:28;;;;;;;;;;;15.80;99.90;;;;;;8415418;28;20280;-71
2023/10/10 07:18:30;;;;;;;;;;;15.90;99.90;;;;;;8411268;28;19939;-71
2023/10/10 07:22:33;;;;;;;;;;;15.90;99.90;;;;;;8421624;28;20315;-71
2023/10/10 07:26:41;;;;;;;;;;;15.90;99.90;;;;;;8413906;28;19924;-71
2023/10/10 07:30:47;;;;;;;;;;;16.00;99.90;;;;;;8423520;28;19928;-71
2023/10/10 07:34:51;;;;;;;;;;;16.00;99.90;;;;;;8405342;28;19970;-71
2023/10/10 07:43:14;;;;;;;;;;;16.10;99.90;;;;;;8418138;28;19935;-71
2023/10/10 07:51:27;;;;;;;;;;;16.20;99.90;;;;;;8424644;28;20374;-71
2023/10/10 07:55:33;;;;;;;;;;;16.20;99.90;;;;;;8415289;28;20375;-70
2023/10/10 07:59:36;;;;;;;;;;;16.20;99.90;;;;;;8419828;28;20332;-71
2023/10/10 08:03:44;;;;;;;;;;;16.30;99.90;;;;;;8427176;28;19924;-71
2023/10/10 08:07:46;;;;;;;;;;;16.30;99.90;;;;;;8414281;28;20127;-71
2023/10/10 08:11:54;;;;;;;;;;;16.20;99.90;;;;;;8415780;28;19960;-71
2023/10/10 08:15:58;;;;;;;;;;;16.20;99.90;;;;;;8404242;28;20025;-71
2023/10/10 08:20:31;;;;;;;;;;;16.20;99.90;;;;;;8398254;28;19970;-71
2023/10/10 08:24:21;;;;;;;;;;;16.30;99.90;;;;;;8409521;28;19977;-71
2023/10/10 08:28:23;;;;;;;;;;;16.30;99.90;;;;;;8399082;28;19924;-71
2023/10/10 08:32:26;;;;;;;;;;;16.40;99.90;;;;;;8404555;28;19948;-71
2023/10/10 08:36:29;;;;;;;;;;;16.50;99.90;;;;;;8414423;28;19934;-71
2023/10/10 08:40:34;;;;;;;;;;;16.50;99.90;;;;;;8410616;28;20036;-72
2023/10/10 08:44:40;;;;;;;;;;;16.60;99.90;;;;;;8393136;28;20376;-71
2023/10/10 08:48:41;;;;;;;;;;;16.60;99.90;;;;;;8426468;27;19929;-72
2023/10/10 08:52:43;;;;;;;;;;;16.60;99.90;;;;;;8391821;28;19939;-72
2023/10/10 08:57:02;;;;;;;;;;;16.70;99.90;;;;;;8412851;28;20715;-71
2023/10/10 09:01:05;;;;;;;;;;;16.70;99.90;;;;;;8414753;28;19977;-72
2023/10/10 09:05:07;;;;;;;;;;;16.80;99.90;;;;;;8406359;28;19924;-71
2023/10/10 09:09:33;;;;;;;;;;;16.80;99.90;;;;;;8415642;28;19928;-72
2023/10/10 09:13:46;;;;;;;;;;;16.90;99.90;;;;;;8410420;28;19939;-71
2023/10/10 09:17:48;;;;;;;;;;;17.00;99.90;;;;;;8417451;28;19924;-71
2023/10/10 09:21:50;;;;;;;;;;;17.10;99.90;;;;;;8408020;28;20018;-72
2023/10/10 09:26:12;;;;;;;;;;;17.20;99.90;;;;;;8420320;28;20171;-70
2023/10/10 09:30:15;;;;;;;;;;;17.40;99.90;;;;;;8396976;28;19947;-71
2023/10/10 09:34:22;;;;;;;;;;;17.50;99.90;;;;;;8405959;28;19924;-72
2023/10/10 09:38:26;;;;;;;;;;;17.60;99.90;;;;;;8418235;28;19927;-72
2023/10/10 09:42:29;;;;;;;;;;;17.70;99.90;;;;;;8392560;28;20301;-72
2023/10/10 09:46:49;;;;;;;;;;;17.70;99.90;;;;;;8421720;28;20410;-72
2023/10/10 09:59:28;;;;;;;;;;;18.00;99.90;;;;;;8411024;28;19924;-70
2023/10/10 10:07:42;;;;;;;;;;;18.00;99.90;;;;;;8413667;28;20394;-72
2023/10/10 10:12:04;;;;;;;;;;;18.30;99.90;;;;;;8411678;28;19924;-72
2023/10/10 10:16:32;;;;;;;;;;;18.50;99.90;;;;;;8417089;28;19948;-72
2023/10/10 10:20:44;;;;;;;;;;;18.70;99.90;;;;;;8432417;28;20355;-72
2023/10/10 10:24:45;;;;;;;;;;;19.00;99.90;;;;;;8423849;28;19977;-71
2023/10/10 10:28:56;;;;;;;;;;;19.30;99.90;;;;;;8426295;28;19938;-72
2023/10/10 10:32:58;;;;;;;;;;;19.50;99.90;;;;;;8421440;28;19928;-73
2023/10/10 10:37:07;;;;;;;;;;;19.80;99.90;;;;;;8412456;28;20386;-72
2023/10/10 10:41:17;;;;;;;;;;;20.10;99.90;;;;;;8412189;28;19930;-73
2023/10/10 10:45:25;;;;;;;;;;;20.30;99.90;;;;;;8415465;28;19924;-73
2023/10/10 10:49:28;;;;;;;;;;;20.40;99.90;;;;;;8432140;28;19928;-73
2023/10/10 10:53:38;;;;;;;;;;;20.60;99.90;;;;;;8421844;28;20371;-74
2023/10/10 10:57:40;;;;;;;;;;;20.70;99.90;;;;;;8429943;28;19924;-72
2023/10/10 11:01:57;;;;;;;;;;;20.90;99.90;;;;;;8429378;28;19930;-72
2023/10/10 11:05:59;;;;;;;;;;;21.00;99.90;;;;;;8417519;28;20279;-73
2023/10/10 11:10:07;;;;;;;;;;;21.10;99.90;;;;;;8417224;28;19969;-72
2023/10/10 11:14:10;;;;;;;;;;;21.20;99.90;;;;;;8408935;28;19924;-74
2023/10/10 11:18:12;;;;;;;;;;;21.20;99.90;;;;;;8417140;28;19961;-73
2023/10/10 11:22:38;;;;;;;;;;;21.30;99.90;;;;;;8414442;28;20427;-73
2023/10/10 11:26:39;;;;;;;;;;;21.40;99.90;;;;;;8429503;28;19931;-74
2023/10/10 11:30:45;;;;;;;;;;;21.50;99.90;;;;;;8430074;28;20033;-72
2023/10/10 11:34:49;;;;;;;;;;;21.60;99.90;;;;;;8421725;28;20252;-69
2023/10/10 11:38:55;;;;;;;;;;;21.70;99.90;;;;;;8428650;28;19928;-68
2023/10/10 11:43:03;;;;;;;;;;;21.70;99.90;;;;;;8417549;28;19973;-68
2023/10/10 11:47:07;;;;;;;;;;;21.60;99.90;;;;;;8421800;28;20697;-68
2023/10/10 11:51:11;;;;;;;;;;;21.50;99.90;;;;;;8422872;28;19924;-69
2023/10/10 11:55:14;;;;;;;;;;;21.40;99.90;;;;;;8414403;28;19935;-71
2023/10/10 11:59:17;;;;;;;;;;;21.20;99.90;;;;;;8394237;28;20280;-68
2023/10/10 12:03:32;;;;;;;;;;;21.00;99.90;;;;;;8418523;28;19928;-73
2023/10/10 12:07:40;;;;;;;;;;;20.80;99.90;;;;;;8411303;28;19940;-71
2023/10/10 12:11:41;;;;;;;;;;;20.80;99.90;;;;;;8416921;28;20075;-70
2023/10/10 12:15:45;;;;;;;;;;;20.80;99.90;;;;;;8402859;28;19924;-70
2023/10/10 12:19:46;;;;;;;;;;;20.90;99.90;;;;;;8412111;28;19982;-71
2023/10/10 12:23:49;;;;;;;;;;;21.00;99.90;;;;;;8411595;28;19930;-70
2023/10/10 12:27:54;;;;;;;;;;;21.10;99.90;;;;;;8405507;28;19993;-70
2023/10/10 12:31:56;;;;;;;;;;;21.20;99.90;;;;;;8418900;28;20359;-70
2023/10/10 12:35:58;;;;;;;;;;;21.20;99.90;;;;;;8415386;28;20334;-70
2023/10/10 12:40:08;;;;;;;;;;;21.30;99.90;;;;;;8409670;28;19924;-70
2023/10/10 12:44:10;;;;;;;;;;;21.30;99.90;;;;;;8412735;28;19985;-70
2023/10/10 12:48:20;;;;;;;;;;;21.40;99.90;;;;;;8402348;28;20412;-70
2023/10/10 12:52:22;;;;;;;;;;;21.40;99.90;;;;;;8419062;28;20019;-70
2023/10/10 12:56:24;;;;;;;;;;;21.40;99.90;;;;;;8417714;28;19928;-70
2023/10/10 13:00:33;;;;;;;;;;;21.50;99.90;;;;;;8403908;28;19924;-70
2023/10/10 13:04:37;;;;;;;;;;;21.50;99.90;;;;;;8412149;28;20209;-70
2023/10/10 13:08:38;;;;;;;;;;;21.60;99.90;;;;;;8413054;28;19924;-70
2023/10/10 13:12:45;;;;;;;;;;;21.60;99.90;;;;;;8404292;28;20359;-70
2023/10/10 13:20:51;;;;;;;;;;;21.80;99.90;;;;;;8421261;28;20030;-70
2023/10/10 13:24:52;;;;;;;;;;;21.90;99.90;;;;;;8408621;28;19938;-70
2023/10/10 13:28:54;;;;;;;;;;;22.00;99.90;;;;;;8412408;28;19959;-70
2023/10/10 13:32:56;;;;;;;;;;;22.10;99.90;;;;;;8409889;28;20371;-70
2023/10/10 13:36:58;;;;;;;;;;;22.10;99.90;;;;;;8413827;28;20283;-70
2023/10/10 13:41:02;;;;;;;;;;;21.90;99.90;;;;;;8408518;28;21329;-70
2023/10/10 13:45:11;;;;;;;;;;;21.80;99.90;;;;;;8419076;28;20383;-70
2023/10/10 13:49:13;;;;;;;;;;;21.70;99.90;;;;;;8389170;28;19954;-69
2023/10/10 13:53:15;;;;;;;;;;;21.50;99.90;;;;;;8421505;28;19924;-70
2023/10/10 13:57:17;;;;;;;;;;;21.40;99.90;;;;;;8396593;28;19932;-70
2023/10/10 14:05:32;;;;;;;;;;;21.40;99.90;;;;;;8419416;28;19955;-70
2023/10/10 14:09:34;;;;;;;;;;;21.60;99.90;;;;;;8417193;28;20432;-70
2023/10/10 14:13:52;;;;;;;;;;;21.80;99.90;;;;;;8420545;28;19936;-70
2023/10/10 14:17:55;;;;;;;;;;;22.10;99.90;;;;;;8399148;28;19973;-70
2023/10/10 14:21:57;;;;;;;;;;;22.50;99.90;;;;;;8426104;28;19924;-69
2023/10/10 14:26:13;;;;;;;;;;;22.80;99.90;;;;;;8427780;28;20564;-70
2023/10/10 14:30:21;;;;;;;;;;;23.00;99.90;;;;;;8399851;28;19932;-70
2023/10/10 14:34:26;;;;;;;;;;;23.10;99.90;;;;;;8390552;28;20303;-70
2023/10/10 14:38:31;;;;;;;;;;;23.10;99.90;;;;;;8392720;28;19925;-70
2023/10/10 14:42:33;;;;;;;;;;;22.80;99.90;;;;;;8394326;28;19989;-70
2023/10/10 14:46:35;;;;;;;;;;;22.60;99.90;;;;;;8415210;28;19971;-70
2023/10/10 14:50:37;;;;;;;;;;;22.50;99.90;;;;;;8396046;28;19961;-70
2023/10/10 14:54:42;;;;;;;;;;;22.40;99.90;;;;;;8388591;28;19928;-70
2023/10/10 14:58:48;;;;;;;;;;;22.30;99.90;;;;;;8391714;28;19924;-70
2023/10/10 15:02:53;;;;;;;;;;;22.30;99.90;;;;;;8388720;28;19935;-70
2023/10/10 15:06:55;;;;;;;;;;;22.30;99.90;;;;;;8370972;28;19924;-70
2023/10/10 15:10:56;;;;;;;;;;;22.30;99.90;;;;;;8374462;28;19931;-70
2023/10/10 15:15:00;;;;;;;;;;;22.20;99.90;;;;;;8390079;28;19963;-70
2023/10/10 15:19:06;;;;;;;;;;;22.20;99.90;;;;;;8386857;28;21436;-70
2023/10/10 15:23:08;;;;;;;;;;;22.20;99.90;;;;;;8393946;28;20476;-70
2023/10/10 15:27:10;;;;;;;;;;;22.10;99.90;;;;;;8400890;28;19981;-70
2023/10/10 15:31:12;;;;;;;;;;;22.10;99.90;;;;;;8395001;28;20330;-70
2023/10/10 15:35:15;;;;;;;;;;;22.10;99.90;;;;;;8387516;28;19933;-70
2023/10/10 15:39:17;;;;;;;;;;;22.00;99.90;;;;;;8368216;28;20354;-70
2023/10/10 15:43:19;;;;;;;;;;;22.00;99.90;;;;;;8385787;28;19939;-70
2023/10/10 15:47:33;;;;;;;;;;;21.90;99.90;;;;;;8372448;28;19924;-70
2023/10/10 15:51:38;;;;;;;;;;;21.90;99.90;;;;;;8391217;28;19932;-70
2023/10/10 15:55:39;;;;;;;;;;;21.90;99.90;;;;;;8386237;28;20308;-70
2023/10/10 15:59:41;;;;;;;;;;;21.90;99.90;;;;;;8401339;28;19924;-70
2023/10/10 16:03:51;;;;;;;;;;;21.80;99.90;;;;;;8395142;28;19974;-70
2023/10/10 16:07:53;;;;;;;;;;;21.80;99.90;;;;;;8395100;28;20281;-70
2023/10/10 16:12:12;;;;;;;;;;;21.70;99.90;;;;;;8388663;28;19954;-70
2023/10/10 16:16:14;;;;;;;;;;;21.60;99.90;;;;;;8385936;28;19928;-70
2023/10/10 16:20:16;;;;;;;;;;;21.50;99.90;;;;;;8392322;28;19925;-70
2023/10/10 16:24:18;;;;;;;;;;;21.40;99.90;;;;;;8389261;28;19983;-70
2023/10/10 16:28:22;;;;;;;;;;;21.30;99.90;;;;;;8388552;28;19940;-70
2023/10/10 16:32:23;;;;;;;;;;;21.20;99.90;;;;;;8392559;28;20027;-70
2023/10/10 16:36:26;;;;;;;;;;;21.00;99.90;;;;;;8395987;28;19963;-70
2023/10/10 16:40:30;;;;;;;;;;;20.90;99.90;;;;;;8396787;28;20245;-70
2023/10/10 16:44:31;;;;;;;;;;;20.80;99.90;;;;;;8403865;28;19924;-70
2023/10/10 16:48:33;;;;;;;;;;;20.70;99.90;;;;;;8371946;28;19970;-70
2023/10/10 16:52:36;;;;;;;;;;;20.60;99.90;;;;;;8386322;28;20434;-70
2023/10/10 16:56:43;;;;;;;;;;;20.50;99.90;;;;;;8380069;28;19933;-70
2023/10/10 17:00:47;;;;;;;;;;;20.40;99.90;;;;;;8385231;28;20002;-70
2023/10/10 17:04:49;;;;;;;;;;;20.30;99.90;;;;;;8385046;28;19928;-70
2023/10/10 17:08:54;;;;;;;;;;;20.20;99.90;;;;;;8381222;28;20427;-70
2023/10/10 17:12:56;;;;;;;;;;;20.10;99.90;;;;;;8381688;28;19967;-70
2023/10/10 17:16:57;;;;;;;;;;;20.10;99.90;;;;;;8397358;28;19928;-70
2023/10/10 17:21:00;;;;;;;;;;;20.00;99.90;;;;;;8381681;28;19932;-70
2023/10/10 17:25:03;;;;;;;;;;;20.00;99.90;;;;;;8389846;28;20422;-70
2023/10/10 17:29:04;;;;;;;;;;;19.90;99.90;;;;;;8393981;28;19940;-71
2023/10/10 17:33:06;;;;;;;;;;;19.90;99.90;;;;;;8394430;28;20451;-71
2023/10/10 17:37:09;;;;;;;;;;;20.00;99.90;;;;;;8403522;28;20364;-70
2023/10/10 17:41:13;;;;;;;;;;;20.00;99.90;;;;;;8377334;28;19924;-71
2023/10/10 17:45:16;;;;;;;;;;;20.00;99.90;;;;;;8396160;28;20406;-71
2023/10/10 17:49:19;;;;;;;;;;;20.10;99.90;;;;;;8379274;28;20436;-70
2023/10/10 17:53:21;;;;;;;;;;;20.10;99.90;;;;;;8388169;28;20338;-71
2023/10/10 17:57:23;;;;;;;;;;;20.10;99.90;;;;;;8405362;28;19932;-71
2023/10/10 18:01:28;;;;;;;;;;;20.10;99.90;;;;;;8387060;28;19950;-71
2023/10/10 18:05:37;;;;;;;;;;;20.10;99.90;;;;;;8384006;28;19929;-71
2023/10/10 18:09:39;;;;;;;;;;;20.10;99.90;;;;;;8388386;28;19983;-71
2023/10/10 18:13:41;;;;;;;;;;;20.00;99.90;;;;;;8385828;28;23933;-71
2023/10/10 18:17:43;;;;;;;;;;;20.00;99.90;;;;;;8385026;28;20372;-71
2023/10/10 18:21:45;;;;;;;;;;;19.90;99.90;;;;;;8388236;28;19967;-71
2023/10/10 18:25:47;;;;;;;;;;;19.80;99.90;;;;;;8385374;28;19924;-70
2023/10/10 18:29:51;;;;;;;;;;;19.80;99.90;;;;;;8369888;28;19928;-71
2023/10/10 18:33:52;;;;;;;;;;;19.70;99.90;;;;;;8395049;28;19957;-70
2023/10/10 18:37:54;;;;;;;;;;;19.70;99.90;;;;;;8390887;28;19972;-71
2023/10/10 18:41:56;;;;;;;;;;;19.60;99.90;;;;;;8399369;28;19982;-70
2023/10/10 18:45:59;;;;;;;;;;;19.60;99.90;;;;;;8404011;28;19924;-71
2023/10/10 18:50:05;;;;;;;;;;;19.60;99.90;;;;;;8401107;28;19931;-70
2023/10/10 18:54:08;;;;;;;;;;;19.50;99.90;;;;;;8395540;28;20333;-71
2023/10/10 18:58:11;;;;;;;;;;;19.40;99.90;;;;;;8394846;28;20275;-70
2023/10/10 19:02:14;;;;;;;;;;;19.40;99.90;;;;;;8384224;28;19924;-71
2023/10/10 19:06:19;;;;;;;;;;;19.30;99.90;;;;;;8393007;28;19972;-71
2023/10/10 19:10:21;;;;;;;;;;;19.30;99.90;;;;;;8387790;28;19954;-70
2023/10/10 19:14:33;;;;;;;;;;;19.20;99.90;;;;;;8401184;28;20414;-71
2023/10/10 19:18:35;;;;;;;;;;;19.20;99.90;;;;;;8394340;28;19934;-70
2023/10/10 19:22:36;;;;;;;;;;;19.10;99.90;;;;;;8377124;28;21177;-70
2023/10/10 19:26:38;;;;;;;;;;;19.00;99.90;;;;;;8390636;28;19928;-70
2023/10/10 19:30:41;;;;;;;;;;;19.00;99.90;;;;;;8389180;28;20340;-70
2023/10/10 19:34:43;;;;;;;;;;;19.00;99.90;;;;;;8389155;28;21654;-70
2023/10/10 19:38:45;;;;;;;;;;;19.00;99.90;;;;;;8400361;28;19924;-70
2023/10/10 19:42:51;;;;;;;;;;;19.00;99.90;;;;;;8383169;28;20450;-70
2023/10/10 19:46:53;;;;;;;;;;;19.00;99.90;;;;;;8388531;28;20438;-70
2023/10/10 19:50:56;;;;;;;;;;;19.00;99.90;;;;;;8390103;28;20375;-71
2023/10/10 19:54:58;;;;;;;;;;;19.00;99.90;;;;;;8392211;28;19935;-70
2023/10/10 19:59:15;;;;;;;;;;;19.00;99.90;;;;;;8392904;28;19978;-70
2023/10/10 20:03:17;;;;;;;;;;;19.00;99.90;;;;;;8399188;28;19959;-70
2023/10/10 20:07:19;;;;;;;;;;;19.00;99.90;;;;;;8399424;28;19924;-70
2023/10/10 20:11:21;;;;;;;;;;;19.00;99.90;;;;;;8400856;28;19928;-70
2023/10/10 20:15:24;;;;;;;;;;;19.00;99.90;;;;;;8386524;28;19934;-70
2023/10/10 20:19:28;;;;;;;;;;;19.00;99.90;;;;;;8366303;28;20399;-70
2023/10/10 20:23:29;;;;;;;;;;;19.00;99.90;;;;;;8383897;28;20394;-70
2023/10/10 20:27:31;;;;;;;;;;;19.00;99.90;;;;;;8383388;28;19944;-70
2023/10/10 20:31:33;;;;;;;;;;;18.90;99.90;;;;;;8388332;28;19925;-70
2023/10/10 20:35:34;;;;;;;;;;;18.90;99.90;;;;;;8368771;28;19931;-70
2023/10/10 20:39:36;;;;;;;;;;;19.00;99.90;;;;;;8388632;28;20375;-70
2023/10/10 20:43:39;;;;;;;;;;;18.90;99.90;;;;;;8383055;28;19928;-70
2023/10/10 20:47:44;;;;;;;;;;;18.90;99.90;;;;;;8386496;28;19928;-70
2023/10/10 20:51:47;;;;;;;;;;;18.90;99.90;;;;;;8384605;28;20265;-70
2023/10/10 20:55:49;;;;;;;;;;;18.90;99.90;;;;;;8366466;28;20024;-70
2023/10/10 20:59:51;;;;;;;;;;;18.80;99.90;;;;;;8385451;28;20644;-69
2023/10/10 21:03:54;;;;;;;;;;;18.70;99.90;;;;;;8396747;28;20450;-70
2023/10/10 21:07:57;;;;;;;;;;;18.60;99.90;;;;;;8407687;28;19929;-70
2023/10/10 21:11:58;;;;;;;;;;;18.60;99.90;;;;;;8395882;28;19925;-70
2023/10/10 21:16:01;;;;;;;;;;;18.50;99.90;;;;;;8401062;28;19930;-70
2023/10/10 21:20:09;;;;;;;;;;;18.50;99.90;;;;;;8397247;28;19925;-70
2023/10/10 21:24:11;;;;;;;;;;;18.50;99.90;;;;;;8409201;28;19932;-70
2023/10/10 21:28:13;;;;;;;;;;;18.50;99.90;;;;;;8404783;28;19964;-70
2023/10/10 21:32:14;;;;;;;;;;;18.40;99.90;;;;;;8418090;28;19924;-70
2023/10/10 21:36:16;;;;;;;;;;;18.40;99.90;;;;;;8418553;28;19931;-70
2023/10/10 21:40:20;;;;;;;;;;;18.30;99.90;;;;;;8417385;28;20330;-70
2023/10/10 21:44:22;;;;;;;;;;;18.30;99.90;;;;;;8422752;28;20280;-70
2023/10/10 21:48:24;;;;;;;;;;;18.20;99.90;;;;;;8403697;28;19935;-70
2023/10/10 21:52:27;;;;;;;;;;;18.20;99.90;;;;;;8395376;28;19934;-69
2023/10/10 21:56:30;;;;;;;;;;;18.00;99.90;;;;;;8402474;28;20307;-70
2023/10/10 22:04:34;;;;;;;;;;;18.00;99.90;;;;;;8410184;28;20433;-70
2023/10/10 22:08:36;;;;;;;;;;;18.00;99.90;;;;;;8419808;28;19938;-70
2023/10/10 22:12:38;;;;;;;;;;;18.00;99.90;;;;;;8427996;28;19935;-69
2023/10/10 22:16:42;;;;;;;;;;;18.00;99.90;;;;;;8421861;28;19925;-69
2023/10/10 22:20:45;;;;;;;;;;;18.00;99.90;;;;;;8430153;28;19924;-70
2023/10/10 22:24:47;;;;;;;;;;;18.00;99.90;;;;;;8417526;28;20394;-69
2023/10/10 22:28:49;;;;;;;;;;;17.90;99.90;;;;;;8425139;28;19940;-69
2023/10/10 22:32:52;;;;;;;;;;;17.90;99.90;;;;;;8432004;28;19935;-70
2023/10/10 22:36:56;;;;;;;;;;;17.90;99.90;;;;;;8416248;28;19924;-70
2023/10/10 22:41:08;;;;;;;;;;;17.80;99.90;;;;;;8412241;28;19932;-69
2023/10/10 22:45:10;;;;;;;;;;;17.80;99.90;;;;;;8421538;28;19924;-69
2023/10/10 22:49:12;;;;;;;;;;;17.70;99.90;;;;;;8421773;28;19924;-69
2023/10/10 22:53:13;;;;;;;;;;;17.70;99.90;;;;;;8422445;28;19947;-69
2023/10/10 22:57:18;;;;;;;;;;;17.70;99.90;;;;;;8425550;28;19974;-70
2023/10/10 23:01:22;;;;;;;;;;;17.60;99.90;;;;;;8413670;28;19932;-69
2023/10/10 23:05:28;;;;;;;;;;;17.60;99.90;;;;;;8406449;28;19928;-70
2023/10/10 23:09:37;;;;;;;;;;;17.50;99.90;;;;;;8401669;28;19999;-69
2023/10/10 23:13:41;;;;;;;;;;;17.50;99.90;;;;;;8415495;28;19995;-69
2023/10/10 23:17:44;;;;;;;;;;;17.50;99.90;;;;;;8424934;28;20299;-70
2023/10/10 23:21:45;;;;;;;;;;;17.50;99.90;;;;;;8406086;28;19924;-70
2023/10/10 23:25:47;;;;;;;;;;;17.40;99.90;;;;;;8399653;28;19931;-70
2023/10/10 23:29:49;;;;;;;;;;;17.40;99.90;;;;;;8424731;28;20018;-70
2023/10/10 23:33:50;;;;;;;;;;;17.40;99.90;;;;;;8428649;28;19985;-69
2023/10/10 23:37:53;;;;;;;;;;;17.40;99.90;;;;;;8399884;28;19947;-70
2023/10/10 23:41:54;;;;;;;;;;;17.30;99.90;;;;;;8422053;28;19924;-70
2023/10/10 23:45:59;;;;;;;;;;;17.30;99.90;;;;;;8421587;28;19924;-70
2023/10/10 23:50:05;;;;;;;;;;;17.30;99.90;;;;;;8419993;28;19931;-70
2023/10/10 23:54:06;;;;;;;;;;;17.20;99.90;;;;;;8398996;28;19955;-70
2023/10/10 23:58:11;;;;;;;;;;;17.20;99.90;;;;;;8403224;28;19932;-70
